Time;durP1;ratioP1;P1;durP2;ratioP2;P2;SDS_P1;SDS_P2;PMS_P1;PMS_P2;Temp;Humidity;BMP_temperature;BMP_pressure;BME280_temperature;BME280_humidity;BME280_pressure;Samples;Min_cycle;Max_cycle;Signal;HPM_P1;HPM_P2
2022/11/24 00:01:11;;;;;;;;;;;7.90;99.90;;;;;;4972220;28;20013;-68
2022/11/24 00:03:39;;;;;;;;;;;7.80;99.90;;;;;;4983180;28;20472;-68
2022/11/24 00:06:08;;;;;;;;;;;7.80;99.90;;;;;;4992279;28;19969;-67
2022/11/24 00:08:37;;;;;;;;;;;7.80;99.90;;;;;;4992072;28;20413;-67
2022/11/24 00:11:05;;;;;;;;;;;7.80;99.90;;;;;;4991620;28;20017;-67
2022/11/24 00:13:34;;;;;;;;;;;7.80;99.90;;;;;;4992156;28;19968;-67
2022/11/24 00:16:09;;;;;;;;;;;7.80;99.90;;;;;;4992149;28;20027;-67
2022/11/24 00:18:37;;;;;;;;;;;7.80;99.90;;;;;;4974928;28;20453;-67
2022/11/24 00:21:05;;;;;;;;;;;7.90;99.90;;;;;;4991091;28;19970;-68
2022/11/24 00:23:32;;;;;;;;;;;7.90;99.90;;;;;;4989092;28;19981;-67
2022/11/24 00:26:04;;;;;;;;;;;8.00;99.90;;;;;;4972719;28;19973;-68
2022/11/24 00:28:34;;;;;;;;;;;8.10;99.90;;;;;;4973029;28;20354;-67
2022/11/24 00:31:01;;;;;;;;;;;8.10;99.90;;;;;;4971723;28;19976;-68
2022/11/24 00:33:29;;;;;;;;;;;8.10;99.90;;;;;;4972737;28;20523;-68
2022/11/24 00:35:58;;;;;;;;;;;8.10;99.90;;;;;;4972495;28;19975;-69
2022/11/24 00:38:26;;;;;;;;;;;8.10;99.90;;;;;;4988985;28;20340;-68
2022/11/24 00:40:53;;;;;;;;;;;8.10;99.90;;;;;;4991373;28;19971;-68
2022/11/24 00:43:21;;;;;;;;;;;8.10;99.90;;;;;;4991723;28;19979;-67
2022/11/24 00:45:50;;;;;;;;;;;8.00;99.90;;;;;;4992225;28;20319;-68
2022/11/24 00:48:31;;;;;;;;;;;8.00;99.90;;;;;;4992153;28;20437;-67
2022/11/24 00:50:59;;;;;;;;;;;8.00;99.90;;;;;;4992817;28;19969;-67
2022/11/24 00:53:27;;;;;;;;;;;8.00;99.90;;;;;;4993983;28;20353;-67
2022/11/24 00:55:55;;;;;;;;;;;7.90;99.90;;;;;;4975972;28;19976;-67
2022/11/24 00:58:23;;;;;;;;;;;8.00;99.90;;;;;;4975960;28;19976;-68
2022/11/24 01:00:53;;;;;;;;;;;8.00;99.90;;;;;;4975540;28;20442;-68
2022/11/24 01:03:21;;;;;;;;;;;8.00;99.90;;;;;;4976138;28;19973;-67
2022/11/24 01:05:49;;;;;;;;;;;8.00;99.90;;;;;;4975965;28;19974;-67
2022/11/24 01:08:16;;;;;;;;;;;8.10;99.90;;;;;;4975878;28;19980;-67
2022/11/24 01:10:44;;;;;;;;;;;8.10;99.90;;;;;;4978304;28;20456;-65
2022/11/24 01:13:12;;;;;;;;;;;8.10;99.90;;;;;;4995357;28;20004;-68
2022/11/24 01:15:40;;;;;;;;;;;8.30;99.90;;;;;;4995204;28;20365;-68
2022/11/24 01:18:09;;;;;;;;;;;8.30;99.90;;;;;;4995470;28;20625;-67
2022/11/24 01:20:37;;;;;;;;;;;8.20;99.90;;;;;;4994444;28;20449;-67
2022/11/24 01:23:05;;;;;;;;;;;8.30;99.90;;;;;;4994849;28;19965;-67
2022/11/24 01:25:32;;;;;;;;;;;8.40;99.90;;;;;;4975943;28;19969;-68
2022/11/24 01:28:00;;;;;;;;;;;8.40;99.90;;;;;;4980678;28;19969;-67
2022/11/24 01:30:28;;;;;;;;;;;8.50;99.90;;;;;;4994222;28;19973;-67
2022/11/24 01:32:56;;;;;;;;;;;8.50;99.90;;;;;;4995042;28;19973;-68
2022/11/24 01:35:25;;;;;;;;;;;8.50;99.90;;;;;;4994814;28;19969;-67
2022/11/24 01:37:53;;;;;;;;;;;8.50;99.90;;;;;;4994473;28;19980;-67
2022/11/24 01:40:21;;;;;;;;;;;8.50;99.90;;;;;;4994015;28;20362;-67
2022/11/24 01:42:49;;;;;;;;;;;8.50;99.90;;;;;;4994779;28;19969;-67
2022/11/24 01:45:29;;;;;;;;;;;8.50;99.90;;;;;;4994493;28;19969;-67
2022/11/24 01:47:57;;;;;;;;;;;8.50;99.90;;;;;;4994593;28;20434;-67
2022/11/24 01:50:27;;;;;;;;;;;8.60;99.90;;;;;;4993887;28;20497;-67
2022/11/24 01:52:55;;;;;;;;;;;8.60;99.90;;;;;;4994394;28;20349;-68
2022/11/24 01:55:25;;;;;;;;;;;8.60;99.90;;;;;;4976904;28;19974;-67
2022/11/24 01:57:55;;;;;;;;;;;8.60;99.90;;;;;;4974996;28;19976;-67
2022/11/24 02:00:23;;;;;;;;;;;8.70;99.90;;;;;;4974208;28;19970;-67
2022/11/24 02:02:52;;;;;;;;;;;8.70;99.90;;;;;;4980003;28;20098;-68
2022/11/24 02:05:23;;;;;;;;;;;8.70;99.90;;;;;;4974751;28;19973;-67
2022/11/24 02:07:53;;;;;;;;;;;8.70;99.90;;;;;;4974628;28;19984;-68
2022/11/24 02:10:22;;;;;;;;;;;8.70;99.90;;;;;;4974212;28;19981;-68
2022/11/24 02:12:51;;;;;;;;;;;8.70;99.90;;;;;;4974731;28;19976;-68
2022/11/24 02:15:19;;;;;;;;;;;8.70;99.90;;;;;;4974732;28;19976;-68
2022/11/24 02:17:47;;;;;;;;;;;8.70;99.90;;;;;;4974486;28;19976;-68
2022/11/24 02:20:15;;;;;;;;;;;8.70;99.90;;;;;;4988946;28;19975;-68
2022/11/24 02:22:47;;;;;;;;;;;8.80;99.90;;;;;;4993942;28;19969;-68
2022/11/24 02:25:21;;;;;;;;;;;8.80;99.90;;;;;;4977385;28;20423;-68
2022/11/24 02:27:50;;;;;;;;;;;8.80;99.90;;;;;;4974630;28;20056;-68
2022/11/24 02:30:20;;;;;;;;;;;8.80;99.90;;;;;;4973523;28;20421;-69
2022/11/24 02:32:48;;;;;;;;;;;8.80;99.90;;;;;;4974410;28;19975;-68
2022/11/24 02:35:16;;;;;;;;;;;8.90;99.90;;;;;;4974609;28;19980;-68
2022/11/24 02:37:44;;;;;;;;;;;8.90;99.90;;;;;;4993144;28;19969;-68
2022/11/24 02:40:14;;;;;;;;;;;8.90;99.90;;;;;;4992806;28;19979;-68
2022/11/24 02:42:44;;;;;;;;;;;9.00;99.90;;;;;;4974276;28;19970;-68
2022/11/24 02:45:15;;;;;;;;;;;9.00;99.90;;;;;;4974216;28;19976;-69
2022/11/24 02:47:44;;;;;;;;;;;8.90;99.90;;;;;;4974008;28;20068;-67
2022/11/24 02:50:11;;;;;;;;;;;9.00;99.90;;;;;;4978098;28;19965;-68
2022/11/24 02:52:39;;;;;;;;;;;8.90;99.90;;;;;;4993011;28;19965;-68
2022/11/24 02:55:07;;;;;;;;;;;8.80;99.90;;;;;;4993375;28;19975;-67
2022/11/24 02:57:35;;;;;;;;;;;8.80;99.90;;;;;;4993156;28;19969;-68
2022/11/24 03:00:03;;;;;;;;;;;8.80;99.90;;;;;;4992520;28;20345;-67
2022/11/24 03:02:32;;;;;;;;;;;8.80;99.90;;;;;;4993397;28;20442;-68
2022/11/24 03:05:00;;;;;;;;;;;8.70;99.90;;;;;;4993234;28;20096;-67
2022/11/24 03:07:28;;;;;;;;;;;8.70;99.90;;;;;;4992953;28;19977;-67
2022/11/24 03:09:55;;;;;;;;;;;8.70;99.90;;;;;;4992094;28;19969;-67
2022/11/24 03:12:23;;;;;;;;;;;8.70;99.90;;;;;;4993170;28;19975;-67
2022/11/24 03:14:51;;;;;;;;;;;8.60;99.90;;;;;;4992294;28;19970;-67
2022/11/24 03:17:18;;;;;;;;;;;8.60;99.90;;;;;;4993019;28;19969;-67
2022/11/24 03:19:47;;;;;;;;;;;8.60;99.90;;;;;;4992202;28;19976;-67
2022/11/24 03:22:15;;;;;;;;;;;8.70;99.90;;;;;;4993022;28;19965;-67
2022/11/24 03:24:43;;;;;;;;;;;8.60;99.90;;;;;;4980348;28;19969;-67
2022/11/24 03:27:11;;;;;;;;;;;8.70;99.90;;;;;;4979619;28;19979;-65
2022/11/24 03:29:38;;;;;;;;;;;8.70;99.90;;;;;;4992114;28;20076;-66
2022/11/24 03:32:06;;;;;;;;;;;8.60;99.90;;;;;;5090793;22;19966;-64
2022/11/24 03:34:34;;;;;;;;;;;8.60;99.90;;;;;;4992809;28;19969;-65
2022/11/24 03:37:03;;;;;;;;;;;8.60;99.90;;;;;;4992653;28;19969;-65
2022/11/24 03:39:31;;;;;;;;;;;8.60;99.90;;;;;;4992243;28;20001;-65
2022/11/24 03:41:59;;;;;;;;;;;8.60;99.90;;;;;;4992362;28;19969;-68
2022/11/24 03:44:26;;;;;;;;;;;8.60;99.90;;;;;;4984521;28;19976;-68
2022/11/24 03:46:54;;;;;;;;;;;8.60;99.90;;;;;;4972953;28;19970;-68
2022/11/24 03:49:22;;;;;;;;;;;8.60;99.90;;;;;;4973174;28;19979;-68
2022/11/24 03:51:49;;;;;;;;;;;8.60;99.90;;;;;;4984286;28;19988;-67
2022/11/24 03:54:19;;;;;;;;;;;8.50;99.90;;;;;;4992173;28;19969;-69
2022/11/24 03:56:46;;;;;;;;;;;8.50;99.90;;;;;;4992512;28;19969;-68
2022/11/24 03:59:14;;;;;;;;;;;8.40;99.90;;;;;;4992650;28;19969;-67
2022/11/24 04:01:42;;;;;;;;;;;8.50;99.90;;;;;;4991106;28;19969;-67
2022/11/24 04:04:10;;;;;;;;;;;8.50;99.90;;;;;;4992616;28;20342;-67
2022/11/24 04:06:38;;;;;;;;;;;8.50;99.90;;;;;;4992244;28;19972;-67
2022/11/24 04:09:06;;;;;;;;;;;8.50;99.90;;;;;;4992336;28;19969;-67
2022/11/24 04:14:20;;;;;;;;;;;8.60;99.90;;;;;;4992306;28;19969;-67
2022/11/24 04:16:48;;;;;;;;;;;8.60;99.90;;;;;;4992314;28;19985;-68
2022/11/24 04:19:16;;;;;;;;;;;8.70;99.90;;;;;;4991675;28;20481;-68
2022/11/24 04:21:43;;;;;;;;;;;8.80;99.90;;;;;;4991374;28;19972;-67
2022/11/24 04:24:11;;;;;;;;;;;8.70;99.90;;;;;;4992119;28;20338;-67
2022/11/24 04:26:40;;;;;;;;;;;8.80;99.90;;;;;;4994454;28;19975;-67
2022/11/24 04:29:09;;;;;;;;;;;8.80;99.90;;;;;;4996284;28;19980;-68
2022/11/24 04:31:36;;;;;;;;;;;8.90;99.90;;;;;;4995168;28;19983;-68
2022/11/24 04:34:04;;;;;;;;;;;8.90;99.90;;;;;;4996113;28;20421;-68
2022/11/24 04:36:32;;;;;;;;;;;9.00;99.90;;;;;;4995296;28;20016;-68
2022/11/24 04:39:00;;;;;;;;;;;9.00;99.90;;;;;;4995571;28;19979;-68
2022/11/24 04:41:49;;;;;;;;;;;9.00;99.90;;;;;;4995386;28;19973;-68
2022/11/24 04:44:16;;;;;;;;;;;9.00;99.90;;;;;;4995876;28;19973;-67
2022/11/24 04:46:44;;;;;;;;;;;9.00;99.90;;;;;;4995548;28;20343;-67
2022/11/24 04:49:12;;;;;;;;;;;9.10;99.90;;;;;;4995625;28;20063;-68
2022/11/24 04:51:40;;;;;;;;;;;9.10;99.90;;;;;;4994043;28;19965;-68
2022/11/24 04:54:10;;;;;;;;;;;9.10;99.90;;;;;;4992754;28;19976;-70
2022/11/24 04:56:38;;;;;;;;;;;9.00;99.90;;;;;;4983337;28;19980;-68
2022/11/24 04:59:07;;;;;;;;;;;9.20;99.90;;;;;;4984623;28;21292;-67
2022/11/24 05:01:35;;;;;;;;;;;9.20;99.90;;;;;;4983450;28;20327;-67
2022/11/24 05:04:03;;;;;;;;;;;9.20;99.90;;;;;;4983122;28;19969;-67
2022/11/24 05:06:32;;;;;;;;;;;9.30;99.90;;;;;;4983703;28;19973;-68
2022/11/24 05:08:59;;;;;;;;;;;9.40;99.90;;;;;;4983447;28;21093;-67
2022/11/24 05:11:27;;;;;;;;;;;9.40;99.90;;;;;;4982735;28;19984;-65
2022/11/24 05:13:55;;;;;;;;;;;9.40;99.90;;;;;;4983251;28;19984;-66
2022/11/24 05:16:24;;;;;;;;;;;9.40;99.90;;;;;;4983030;28;19980;-65
2022/11/24 05:18:52;;;;;;;;;;;9.20;99.90;;;;;;4982981;28;20068;-65
2022/11/24 05:21:19;;;;;;;;;;;9.20;99.90;;;;;;4983146;28;19969;-68
2022/11/24 05:23:47;;;;;;;;;;;9.20;99.90;;;;;;4983959;28;19973;-68
2022/11/24 05:26:15;;;;;;;;;;;9.30;99.90;;;;;;4981659;28;19979;-68
2022/11/24 05:28:42;;;;;;;;;;;9.30;99.90;;;;;;4983965;28;19969;-68
2022/11/24 05:31:10;;;;;;;;;;;9.30;99.90;;;;;;4982655;28;19975;-69
2022/11/24 05:33:39;;;;;;;;;;;9.20;99.90;;;;;;4983710;28;19980;-67
2022/11/24 05:36:07;;;;;;;;;;;9.20;99.90;;;;;;4982022;28;19979;-68
2022/11/24 05:38:35;;;;;;;;;;;9.10;99.90;;;;;;4982331;28;20484;-67
2022/11/24 05:41:03;;;;;;;;;;;8.90;99.90;;;;;;4982837;28;20063;-68
2022/11/24 05:43:31;;;;;;;;;;;9.00;99.90;;;;;;4982614;28;19977;-68
2022/11/24 05:46:00;;;;;;;;;;;9.00;99.90;;;;;;4980885;28;21037;-67
2022/11/24 05:48:27;;;;;;;;;;;8.80;99.90;;;;;;4983108;28;19983;-68
2022/11/24 05:50:57;;;;;;;;;;;8.60;99.90;;;;;;4982643;28;19965;-67
2022/11/24 05:53:25;;;;;;;;;;;8.80;99.90;;;;;;4981709;28;19996;-67
2022/11/24 05:55:53;;;;;;;;;;;8.90;99.90;;;;;;4980227;28;20465;-69
2022/11/24 05:58:21;;;;;;;;;;;8.90;99.90;;;;;;4982650;28;19972;-68
2022/11/24 06:00:49;;;;;;;;;;;9.00;99.90;;;;;;4982263;28;20365;-68
2022/11/24 06:03:16;;;;;;;;;;;8.90;99.90;;;;;;4983091;28;20541;-65
2022/11/24 06:05:45;;;;;;;;;;;9.00;99.90;;;;;;4981449;28;20593;-66
2022/11/24 06:08:14;;;;;;;;;;;9.10;99.90;;;;;;4983279;28;19973;-65
2022/11/24 06:10:42;;;;;;;;;;;9.20;99.90;;;;;;4982048;28;19973;-65
2022/11/24 06:13:10;;;;;;;;;;;9.30;99.90;;;;;;4982627;28;19979;-65
2022/11/24 06:15:39;;;;;;;;;;;9.30;99.90;;;;;;4980888;28;19984;-66
2022/11/24 06:18:07;;;;;;;;;;;9.40;99.90;;;;;;4982868;28;19980;-65
2022/11/24 06:20:35;;;;;;;;;;;9.40;99.90;;;;;;4981845;28;19973;-67
2022/11/24 06:23:03;;;;;;;;;;;9.50;99.90;;;;;;4982387;28;19979;-67
2022/11/24 06:25:32;;;;;;;;;;;9.60;99.90;;;;;;4979872;28;19984;-68
2022/11/24 06:28:02;;;;;;;;;;;9.60;99.90;;;;;;4982505;28;21149;-67
2022/11/24 06:30:30;;;;;;;;;;;9.60;99.90;;;;;;4981608;28;20307;-68
2022/11/24 06:32:58;;;;;;;;;;;9.60;99.90;;;;;;4981926;28;19973;-67
2022/11/24 06:35:25;;;;;;;;;;;9.60;99.90;;;;;;4979913;28;19969;-67
2022/11/24 06:37:53;;;;;;;;;;;9.50;99.90;;;;;;4982308;28;19965;-69
2022/11/24 06:40:21;;;;;;;;;;;9.40;99.90;;;;;;4980924;28;19983;-68
2022/11/24 06:42:53;;;;;;;;;;;9.40;99.90;;;;;;4982485;28;19979;-68
2022/11/24 06:45:20;;;;;;;;;;;9.20;99.90;;;;;;4980496;28;19965;-68
2022/11/24 06:47:48;;;;;;;;;;;9.20;99.90;;;;;;4982269;28;19969;-68
2022/11/24 06:50:16;;;;;;;;;;;9.10;99.90;;;;;;4981248;28;19980;-68
2022/11/24 06:52:44;;;;;;;;;;;8.90;99.90;;;;;;4981800;28;19973;-67
2022/11/24 06:55:11;;;;;;;;;;;8.80;99.90;;;;;;4980144;28;19972;-68
2022/11/24 06:57:39;;;;;;;;;;;8.90;99.90;;;;;;4981955;28;20529;-68
2022/11/24 07:00:09;;;;;;;;;;;8.80;99.90;;;;;;4981511;28;20004;-67
2022/11/24 07:02:37;;;;;;;;;;;8.90;99.90;;;;;;4981780;28;20476;-67
2022/11/24 07:05:12;;;;;;;;;;;8.90;99.90;;;;;;4980137;28;20613;-68
2022/11/24 07:07:40;;;;;;;;;;;8.90;99.90;;;;;;4981932;28;20085;-68
2022/11/24 07:10:08;;;;;;;;;;;9.10;99.90;;;;;;4981145;28;20008;-68
2022/11/24 07:12:35;;;;;;;;;;;9.20;99.90;;;;;;4981765;28;19969;-67
2022/11/24 07:15:03;;;;;;;;;;;9.40;99.90;;;;;;4979910;28;19975;-67
2022/11/24 07:17:35;;;;;;;;;;;9.40;99.90;;;;;;4980922;28;20007;-68
2022/11/24 07:20:03;;;;;;;;;;;9.40;99.90;;;;;;4981138;28;20453;-68
2022/11/24 07:22:31;;;;;;;;;;;9.30;99.90;;;;;;4981098;28;19973;-67
2022/11/24 07:24:58;;;;;;;;;;;9.10;99.90;;;;;;4979337;28;19969;-67
2022/11/24 07:27:26;;;;;;;;;;;9.00;99.90;;;;;;4987127;28;19969;-67
2022/11/24 07:29:54;;;;;;;;;;;8.80;99.90;;;;;;4991330;28;20355;-68
2022/11/24 07:32:22;;;;;;;;;;;8.60;99.90;;;;;;4991590;28;19969;-67
2022/11/24 07:34:51;;;;;;;;;;;8.50;99.90;;;;;;4991946;28;20187;-67
2022/11/24 07:37:18;;;;;;;;;;;8.50;99.90;;;;;;4991666;28;19973;-68
2022/11/24 07:39:46;;;;;;;;;;;8.50;99.90;;;;;;4991212;28;20072;-66
2022/11/24 07:42:14;;;;;;;;;;;8.50;99.90;;;;;;4985562;28;20068;-67
2022/11/24 07:44:41;;;;;;;;;;;8.50;99.90;;;;;;4982122;28;20315;-67
2022/11/24 07:47:09;;;;;;;;;;;8.50;99.90;;;;;;4991965;28;19983;-67
2022/11/24 07:49:37;;;;;;;;;;;8.50;99.90;;;;;;4991474;28;19980;-67
2022/11/24 07:52:07;;;;;;;;;;;8.50;99.90;;;;;;4991634;28;19971;-67
2022/11/24 07:54:35;;;;;;;;;;;8.40;99.90;;;;;;4991509;28;19979;-67
2022/11/24 07:57:03;;;;;;;;;;;8.40;99.90;;;;;;4991514;28;19976;-67
2022/11/24 07:59:30;;;;;;;;;;;8.30;99.90;;;;;;4991050;28;19976;-66
2022/11/24 08:01:58;;;;;;;;;;;8.30;99.90;;;;;;4990503;28;20324;-67
2022/11/24 08:04:26;;;;;;;;;;;8.30;99.90;;;;;;4991696;28;19969;-67
2022/11/24 08:06:54;;;;;;;;;;;8.40;99.90;;;;;;4991465;28;19979;-66
2022/11/24 08:09:23;;;;;;;;;;;8.40;99.90;;;;;;4992052;28;19976;-67
2022/11/24 08:11:51;;;;;;;;;;;8.40;99.90;;;;;;4990901;28;20438;-67
2022/11/24 08:14:19;;;;;;;;;;;8.40;99.90;;;;;;4991551;28;19969;-67
2022/11/24 08:16:46;;;;;;;;;;;8.30;99.90;;;;;;4990955;28;19973;-67
2022/11/24 08:19:14;;;;;;;;;;;8.30;99.90;;;;;;4991397;28;20382;-67
2022/11/24 08:21:42;;;;;;;;;;;8.30;99.90;;;;;;4990826;28;19965;-67
2022/11/24 08:24:10;;;;;;;;;;;8.30;99.90;;;;;;4990979;28;19987;-67
2022/11/24 08:26:39;;;;;;;;;;;8.30;99.90;;;;;;4991073;28;19969;-69
2022/11/24 08:29:06;;;;;;;;;;;8.30;99.90;;;;;;4991228;28;19977;-67
2022/11/24 08:31:35;;;;;;;;;;;8.30;99.90;;;;;;4990557;28;20009;-66
2022/11/24 08:34:03;;;;;;;;;;;8.30;99.90;;;;;;4990365;28;19976;-68
2022/11/24 08:36:31;;;;;;;;;;;8.30;99.90;;;;;;4991388;28;19973;-68
2022/11/24 08:39:00;;;;;;;;;;;8.40;99.90;;;;;;4991123;28;20028;-67
2022/11/24 08:41:28;;;;;;;;;;;8.40;99.90;;;;;;4990544;28;19975;-67
2022/11/24 08:43:57;;;;;;;;;;;8.50;99.90;;;;;;4991113;28;20769;-67
2022/11/24 08:46:25;;;;;;;;;;;8.50;99.90;;;;;;4991325;28;19979;-67
2022/11/24 08:48:54;;;;;;;;;;;8.60;99.90;;;;;;4991140;28;19976;-67
2022/11/24 08:51:23;;;;;;;;;;;8.80;99.90;;;;;;4989761;28;19975;-67
2022/11/24 08:53:53;;;;;;;;;;;8.90;99.90;;;;;;4990955;28;19969;-67
2022/11/24 08:56:21;;;;;;;;;;;8.90;99.90;;;;;;4991195;28;20362;-65
2022/11/24 08:58:48;;;;;;;;;;;8.90;99.90;;;;;;4991163;28;19979;-65
2022/11/24 09:01:18;;;;;;;;;;;8.90;99.90;;;;;;4990789;28;19975;-65
2022/11/24 09:03:47;;;;;;;;;;;9.00;99.90;;;;;;4991043;28;20502;-65
2022/11/24 09:06:18;;;;;;;;;;;9.00;99.90;;;;;;4991594;28;20019;-65
2022/11/24 09:08:47;;;;;;;;;;;9.00;99.90;;;;;;4973779;28;19970;-66
2022/11/24 09:11:16;;;;;;;;;;;9.10;99.90;;;;;;4971107;28;20759;-65
2022/11/24 09:13:44;;;;;;;;;;;9.20;99.90;;;;;;4973953;28;20069;-65
2022/11/24 09:16:12;;;;;;;;;;;9.20;99.90;;;;;;4975105;28;19984;-66
2022/11/24 09:18:42;;;;;;;;;;;9.30;99.90;;;;;;4974809;28;20527;-65
2022/11/24 09:21:10;;;;;;;;;;;9.40;99.90;;;;;;4985590;28;19969;-65
2022/11/24 09:23:38;;;;;;;;;;;9.50;99.90;;;;;;4993652;28;19973;-65
2022/11/24 09:26:06;;;;;;;;;;;9.60;99.90;;;;;;4994345;28;19979;-65
2022/11/24 09:28:34;;;;;;;;;;;9.70;99.90;;;;;;4993737;28;19969;-65
2022/11/24 09:31:02;;;;;;;;;;;10.20;99.90;;;;;;5022229;22;19999;-63
2022/11/24 09:33:31;;;;;;;;;;;10.80;99.90;;;;;;5012680;28;20665;-63
2022/11/24 09:36:00;;;;;;;;;;;11.30;99.90;;;;;;5013772;28;19969;-63
2022/11/24 09:38:28;;;;;;;;;;;11.70;99.90;;;;;;5013602;28;19975;-63
2022/11/24 09:40:56;;;;;;;;;;;11.90;99.90;;;;;;5016869;28;19972;-63
2022/11/24 09:43:27;;;;;;;;;;;12.10;99.90;;;;;;5033384;28;20085;-62
2022/11/24 09:45:57;;;;;;;;;;;12.10;99.90;;;;;;5033570;28;19969;-63
2022/11/24 09:48:35;;;;;;;;;;;12.20;99.90;;;;;;4993759;28;19976;-63
2022/11/24 09:51:05;;;;;;;;;;;12.00;99.90;;;;;;4998972;28;20426;-63
2022/11/24 09:53:37;;;;;;;;;;;11.80;99.90;;;;;;5013126;28;19979;-64
2022/11/24 09:56:20;;;;;;;;;;;11.50;99.90;;;;;;5013584;28;19979;-63
2022/11/24 09:58:49;;;;;;;;;;;11.30;99.90;;;;;;5013668;28;19968;-63
2022/11/24 10:01:18;;;;;;;;;;;11.30;99.90;;;;;;5012589;28;20060;-63
2022/11/24 10:03:47;;;;;;;;;;;11.00;99.90;;;;;;5011435;28;20004;-63
2022/11/24 10:06:24;;;;;;;;;;;10.80;99.90;;;;;;5013414;28;19968;-63
2022/11/24 10:09:07;;;;;;;;;;;10.70;99.90;;;;;;5013555;28;19975;-63
2022/11/24 10:11:37;;;;;;;;;;;10.70;99.90;;;;;;5012500;28;19975;-63
2022/11/24 10:14:20;;;;;;;;;;;10.90;99.90;;;;;;5013172;28;19969;-63
2022/11/24 10:16:52;;;;;;;;;;;11.50;99.90;;;;;;5013444;28;20456;-63
2022/11/24 10:19:27;;;;;;;;;;;12.30;99.90;;;;;;5013378;28;19973;-63
2022/11/24 10:22:13;;;;;;;;;;;12.50;99.90;;;;;;5013099;28;19968;-63
2022/11/24 10:24:54;;;;;;;;;;;12.70;99.90;;;;;;5004628;28;19975;-63
2022/11/24 10:27:26;;;;;;;;;;;12.70;99.90;;;;;;5013344;28;19978;-63
2022/11/24 10:29:54;;;;;;;;;;;12.60;99.90;;;;;;5012671;28;20456;-63
2022/11/24 10:32:25;;;;;;;;;;;12.30;99.90;;;;;;5013368;28;19977;-63
2022/11/24 10:34:53;;;;;;;;;;;12.20;99.90;;;;;;5012945;28;19969;-63
2022/11/24 10:37:26;;;;;;;;;;;12.10;99.90;;;;;;5012723;28;19973;-63
2022/11/24 10:39:58;;;;;;;;;;;11.90;99.90;;;;;;5012234;28;19979;-63
2022/11/24 10:42:28;;;;;;;;;;;11.80;99.90;;;;;;5012966;28;19996;-64
2022/11/24 10:44:59;;;;;;;;;;;11.80;99.90;;;;;;5012966;28;19975;-64
2022/11/24 10:47:26;;;;;;;;;;;11.70;99.90;;;;;;5012582;28;19969;-64
2022/11/24 10:49:57;;;;;;;;;;;11.80;99.90;;;;;;5012022;28;20345;-64
2022/11/24 10:52:28;;;;;;;;;;;12.00;99.90;;;;;;5011964;28;20671;-64
2022/11/24 10:54:57;;;;;;;;;;;12.00;99.90;;;;;;5012334;28;20318;-63
2022/11/24 10:57:29;;;;;;;;;;;11.90;99.90;;;;;;5011391;28;19969;-63
2022/11/24 10:59:56;;;;;;;;;;;11.90;99.90;;;;;;5011861;28;20315;-63
2022/11/24 11:02:28;;;;;;;;;;;11.80;99.90;;;;;;5012474;28;19969;-64
2022/11/24 11:04:56;;;;;;;;;;;11.80;99.90;;;;;;5012561;28;19976;-61
2022/11/24 11:07:25;;;;;;;;;;;12.00;99.90;;;;;;5013379;28;19976;-61
2022/11/24 11:10:17;;;;;;;;;;;12.50;99.90;;;;;;5011407;28;19975;-61
2022/11/24 11:12:45;;;;;;;;;;;13.20;99.90;;;;;;5008909;28;20463;-61
2022/11/24 11:15:21;;;;;;;;;;;14.00;99.90;;;;;;5008453;28;20104;-61
2022/11/24 11:17:51;;;;;;;;;;;14.30;99.90;;;;;;5012112;28;19975;-61
2022/11/24 11:20:21;;;;;;;;;;;14.80;99.90;;;;;;5011996;28;19972;-61
2022/11/24 11:22:49;;;;;;;;;;;14.90;99.90;;;;;;5012059;28;20508;-61
2022/11/24 11:25:20;;;;;;;;;;;14.70;99.90;;;;;;5011919;28;20457;-64
2022/11/24 11:27:48;;;;;;;;;;;14.80;99.90;;;;;;5011981;28;20067;-64
2022/11/24 11:30:17;;;;;;;;;;;14.60;99.90;;;;;;5011446;28;19969;-64
2022/11/24 11:33:18;;;;;;;;;;;14.50;99.90;;;;;;5011973;28;19973;-64
2022/11/24 11:36:09;;;;;;;;;;;14.50;99.90;;;;;;5010924;28;19979;-64
2022/11/24 11:38:38;;;;;;;;;;;15.00;99.90;;;;;;5012114;28;19980;-64
2022/11/24 11:41:10;;;;;;;;;;;15.00;99.90;;;;;;5011147;28;19969;-64
2022/11/24 11:43:39;;;;;;;;;;;15.20;99.90;;;;;;5011615;28;20262;-64
2022/11/24 11:46:11;;;;;;;;;;;14.80;99.90;;;;;;5011647;28;19969;-64
2022/11/24 11:48:42;;;;;;;;;;;14.90;99.90;;;;;;5010590;28;19965;-63
2022/11/24 11:51:29;;;;;;;;;;;15.00;99.90;;;;;;5010739;28;19965;-64
2022/11/24 11:54:03;;;;;;;;;;;15.30;99.90;;;;;;5006318;28;20013;-65
2022/11/24 11:56:35;;;;;;;;;;;15.40;99.90;;;;;;5011561;28;19968;-64
2022/11/24 11:59:21;;;;;;;;;;;15.00;99.90;;;;;;5011405;28;20102;-64
2022/11/24 12:01:57;;;;;;;;;;;14.70;99.90;;;;;;5004213;28;19973;-64
2022/11/24 12:04:30;;;;;;;;;;;14.30;99.90;;;;;;5011291;28;19969;-64
2022/11/24 12:07:01;;;;;;;;;;;14.00;99.90;;;;;;5011837;28;19969;-64
2022/11/24 12:09:36;;;;;;;;;;;13.60;99.90;;;;;;5011360;28;20059;-61
2022/11/24 12:12:13;;;;;;;;;;;13.20;99.90;;;;;;5011132;28;19976;-61
2022/11/24 12:14:44;;;;;;;;;;;12.90;99.90;;;;;;5003971;28;19965;-61
2022/11/24 12:17:20;;;;;;;;;;;12.80;99.90;;;;;;5011556;28;20068;-61
2022/11/24 12:19:55;;;;;;;;;;;12.70;99.90;;;;;;5010950;28;19973;-61
2022/11/24 12:22:31;;;;;;;;;;;12.70;99.90;;;;;;5011493;28;20056;-62
2022/11/24 12:25:02;;;;;;;;;;;12.90;99.90;;;;;;5011183;28;19983;-61
2022/11/24 12:27:38;;;;;;;;;;;13.00;99.90;;;;;;5011323;28;20011;-61
2022/11/24 12:30:10;;;;;;;;;;;13.10;99.90;;;;;;5010735;28;19975;-61
2022/11/24 12:32:50;;;;;;;;;;;13.20;99.90;;;;;;5011265;28;20434;-62
2022/11/24 12:35:22;;;;;;;;;;;13.30;99.90;;;;;;5011161;28;20472;-61
2022/11/24 12:37:55;;;;;;;;;;;13.50;99.90;;;;;;5011364;28;19969;-62
2022/11/24 12:40:27;;;;;;;;;;;13.40;99.90;;;;;;5010679;28;19972;-61
2022/11/24 12:42:59;;;;;;;;;;;13.30;99.90;;;;;;5009896;28;19975;-61
2022/11/24 12:45:31;;;;;;;;;;;13.10;99.90;;;;;;5010677;28;19969;-61
2022/11/24 12:48:14;;;;;;;;;;;13.00;99.90;;;;;;5014344;28;20331;-64
2022/11/24 12:50:43;;;;;;;;;;;12.90;99.90;;;;;;5014325;28;20059;-62
2022/11/24 12:53:13;;;;;;;;;;;12.70;99.90;;;;;;5014961;28;19977;-61
2022/11/24 12:55:41;;;;;;;;;;;12.50;99.90;;;;;;5014653;28;19969;-62
2022/11/24 12:58:13;;;;;;;;;;;12.40;99.90;;;;;;5014584;28;19972;-62
2022/11/24 13:00:47;;;;;;;;;;;12.30;99.90;;;;;;5014196;28;20442;-62
2022/11/24 13:03:24;;;;;;;;;;;12.30;99.90;;;;;;5014662;28;20473;-62
2022/11/24 13:05:53;;;;;;;;;;;12.30;99.90;;;;;;5014542;28;19969;-62
2022/11/24 13:08:23;;;;;;;;;;;12.30;99.90;;;;;;5014296;28;20075;-61
2022/11/24 13:10:50;;;;;;;;;;;12.40;99.90;;;;;;5013983;28;20087;-62
2022/11/24 13:13:28;;;;;;;;;;;12.40;99.90;;;;;;5014303;28;19976;-63
2022/11/24 13:16:14;;;;;;;;;;;12.40;99.90;;;;;;5014326;28;19973;-62
2022/11/24 13:19:07;;;;;;;;;;;12.30;99.90;;;;;;5014316;28;19984;-62
2022/11/24 13:21:49;;;;;;;;;;;12.40;99.90;;;;;;5013563;28;19996;-62
2022/11/24 13:24:24;;;;;;;;;;;12.30;99.90;;;;;;5014235;28;19968;-62
2022/11/24 13:26:53;;;;;;;;;;;12.30;99.90;;;;;;5014121;28;20059;-62
2022/11/24 13:29:33;;;;;;;;;;;12.10;99.90;;;;;;5013946;28;19973;-62
2022/11/24 13:32:19;;;;;;;;;;;12.10;99.90;;;;;;5013815;28;19969;-62
2022/11/24 13:34:54;;;;;;;;;;;12.00;99.90;;;;;;5012974;28;19971;-62
2022/11/24 13:37:44;;;;;;;;;;;11.80;99.90;;;;;;5014313;28;20067;-62
2022/11/24 13:40:28;;;;;;;;;;;12.00;99.90;;;;;;5013247;28;19975;-62
2022/11/24 13:43:15;;;;;;;;;;;11.90;99.90;;;;;;5014057;28;19969;-62
2022/11/24 13:45:51;;;;;;;;;;;11.90;99.90;;;;;;5006181;28;19968;-62
2022/11/24 13:48:37;;;;;;;;;;;11.90;99.90;;;;;;5014106;28;19979;-62
2022/11/24 13:51:13;;;;;;;;;;;12.00;99.90;;;;;;5013155;28;19975;-62
2022/11/24 13:53:42;;;;;;;;;;;12.00;99.90;;;;;;5013652;28;19969;-62
2022/11/24 13:56:21;;;;;;;;;;;12.00;99.90;;;;;;5013146;28;19969;-62
2022/11/24 13:58:49;;;;;;;;;;;11.90;99.90;;;;;;5012775;28;19969;-61
2022/11/24 14:01:20;;;;;;;;;;;11.80;99.90;;;;;;5013078;28;19981;-62
2022/11/24 14:04:06;;;;;;;;;;;11.80;99.90;;;;;;5013805;28;19968;-62
2022/11/24 14:06:57;;;;;;;;;;;11.80;99.90;;;;;;5013431;28;19983;-61
2022/11/24 14:09:35;;;;;;;;;;;11.70;99.90;;;;;;5013199;28;20435;-62
2022/11/24 14:12:06;;;;;;;;;;;11.60;99.90;;;;;;5013578;28;20286;-62
2022/11/24 14:14:34;;;;;;;;;;;11.40;99.90;;;;;;5012952;28;20366;-63
2022/11/24 14:17:07;;;;;;;;;;;11.40;99.90;;;;;;5013307;28;19969;-62
2022/11/24 14:19:34;;;;;;;;;;;11.30;99.90;;;;;;5012958;28;19979;-61
2022/11/24 14:22:02;;;;;;;;;;;11.20;99.90;;;;;;5013205;28;19991;-62
2022/11/24 14:24:32;;;;;;;;;;;11.10;99.90;;;;;;5013396;28;19973;-62
2022/11/24 14:27:12;;;;;;;;;;;11.10;99.90;;;;;;5012181;28;20007;-62
2022/11/24 14:29:51;;;;;;;;;;;11.00;99.90;;;;;;5011544;28;19988;-62
2022/11/24 14:32:22;;;;;;;;;;;11.10;99.90;;;;;;5012655;28;19964;-62
2022/11/24 14:34:50;;;;;;;;;;;11.10;99.90;;;;;;5012904;28;19969;-62
2022/11/24 14:37:19;;;;;;;;;;;11.10;99.90;;;;;;5012844;28;20431;-61
2022/11/24 14:39:46;;;;;;;;;;;11.10;99.90;;;;;;5012128;28;19973;-61
2022/11/24 14:42:16;;;;;;;;;;;11.00;99.90;;;;;;5012630;28;19968;-62
2022/11/24 14:44:46;;;;;;;;;;;10.90;99.90;;;;;;5012749;28;19965;-63
2022/11/24 14:47:17;;;;;;;;;;;10.90;99.90;;;;;;5012753;28;19976;-62